Terminal Aerodrome Forecast
Issued by NWS

Home | Current Version | Previous Version | Text Only | Print | Product List | Glossary On
Versions: 1 2 3 4 5 6 7 8 9 10 11 12 13 14 15 16 17 18 19 20 21 22 23 24
000
FTUS43 KDLH 210400 AAB
TAFBRD
TAF AMD
KBRD 210403Z 2104/2124 18006KT P6SM BKN035
     FM210600 19007KT 6SM BR BKN035
     FM210800 19005KT 3SM BR OVC015
      TEMPO 2108/2112 1/2SM FG BKN004
     FM211500 19009KT P6SM SCT025=

USA.gov is the U.S. government's official web portal to all federal, state and local government web resources and services.